This is the latest recevied weather packets stored in our database for station/object KN4CCE-13. If no packets are shown the sender has not sent any weather packets the latest 10 day(s).
| Time | Temp. | Humidity | Pressure | Rain* | Wind** | Luminosity | Snow |
|---|---|---|---|---|---|---|---|
| 1777128330 | 25° C | 55% | 1009.6 hPa | 0 mm | - | 772 W/m² | - |
| 1777127434 | 24.44° C | 57% | 1009.7 hPa | 0 mm | - | 592 W/m² | - |
| 1777126524 | 23.89° C | 57% | 1009.6 hPa | 0 mm | - | 684 W/m² | - |
| 1777125613 | 22.78° C | 61% | 1009.6 hPa | 0 mm | - | 606 W/m² | - |
| 1777123812 | 21.67° C | 65% | 1009.7 hPa | 0 mm | - | 468 W/m² | - |
| 1777120217 | 18.33° C | 67% | 1009.9 hPa | 0 mm | - | 232 W/m² | - |
| 1777114822 | 14.44° C | 77% | 1009.4 hPa | 0 mm | - | 19 W/m² | - |
| 1777109407 | 15° C | 74% | 1009 hPa | 0 mm | - | 0 W/m² | - |
| 1777108507 | 15° C | 73% | 1009.1 hPa | 0 mm | - | 0 W/m² | - |
| 1777103105 | 16.11° C | 69% | 1008.7 hPa | 0 mm | - | 0 W/m² | - |
| 1777098612 | 17.22° C | 66% | 1008.7 hPa | 0 mm | - | 0 W/m² | - |
| 1777096814 | 17.22° C | 66% | 1009 hPa | 0 mm | - | 0 W/m² | - |
| 1777095914 | 17.22° C | 67% | 1009.2 hPa | 0 mm | - | 0 W/m² | - |
| 1777094116 | 17.22° C | 69% | 1009.3 hPa | 0 mm | - | 0 W/m² | - |
| 1777093219 | 17.22° C | 69% | 1009.3 hPa | 0 mm | - | 0 W/m² | - |
| 1777090520 | 18.33° C | 66% | 1009.4 hPa | 0 mm | - | 0 W/m² | - |
| 1777086910 | 18.89° C | 67% | 1009.3 hPa | 0 mm | - | 0 W/m² | - |
| 1777085118 | 19.44° C | 62% | 1009.2 hPa | 0 mm | - | 0 W/m² | - |
| 1777077931 | 22.78° C | 48% | 1009 hPa | 0 mm | - | 0 W/m² | - |
| 1777075218 | 25° C | 42% | 1008.8 hPa | 0 mm | - | 0 W/m² | - |
* Rain latest hour (hover to see other rain measurements)
** Current wind speed in m/s (hover to see current wind gust speed)